Time;durP1;ratioP1;P1;durP2;ratioP2;P2;SDS_P1;SDS_P2;PMS_P1;PMS_P2;Temp;Humidity;BMP_temperature;BMP_pressure;BME280_temperature;BME280_humidity;BME280_pressure;Samples;Min_cycle;Max_cycle;Signal;HPM_P1;HPM_P2
2022/03/31 00:00:42;;;;;;;19.33;17.38;;;7.30;99.90;;;;;;5054130;28;20256;-72
2022/03/31 00:03:14;;;;;;;18.77;16.88;;;7.20;99.90;;;;;;5082287;28;20171;-72
2022/03/31 00:05:40;;;;;;;19.13;17.17;;;7.20;99.90;;;;;;5093352;28;20194;-72
2022/03/31 00:08:08;;;;;;;19.05;17.10;;;7.20;99.90;;;;;;5079770;28;20184;-69
2022/03/31 00:10:43;;;;;;;18.25;16.38;;;7.20;99.90;;;;;;5064662;28;20176;-73
2022/03/31 00:13:11;;;;;;;18.88;16.95;;;7.30;99.90;;;;;;5071633;28;20175;-70
2022/03/31 00:15:37;;;;;;;19.35;17.45;;;7.20;99.90;;;;;;5071630;28;20199;-71
2022/03/31 00:18:04;;;;;;;18.85;16.95;;;7.10;99.90;;;;;;5072602;28;20267;-70
2022/03/31 00:20:30;;;;;;;20.67;18.48;;;7.20;99.90;;;;;;5083457;28;20653;-73
2022/03/31 00:22:56;;;;;;;21.15;18.30;;;7.10;99.90;;;;;;5073326;28;20189;-70
2022/03/31 00:25:25;;;;;;;20.35;18.27;;;7.10;99.90;;;;;;5064789;28;20227;-70
2022/03/31 00:27:51;;;;;;;19.90;17.88;;;7.00;99.90;;;;;;5052377;28;20176;-71
2022/03/31 00:30:18;;;;;;;18.90;16.90;;;7.00;99.90;;;;;;5053422;28;20183;-72
2022/03/31 00:32:44;;;;;;;20.92;18.73;;;6.90;99.90;;;;;;5073268;28;20175;-70
2022/03/31 00:35:12;;;;;;;20.40;18.30;;;6.90;99.90;;;;;;5072218;28;20203;-70
2022/03/31 00:37:40;;;;;;;21.15;18.88;;;6.80;99.90;;;;;;5073078;28;20289;-70
2022/03/31 00:40:08;;;;;;;20.25;18.15;;;6.80;99.90;;;;;;5079454;28;20720;-70
2022/03/31 00:42:40;;;;;;;20.13;18.00;;;6.90;99.90;;;;;;5084652;28;20182;-70
2022/03/31 00:45:11;;;;;;;22.08;19.40;;;6.90;99.90;;;;;;5072414;28;20219;-70
2022/03/31 00:47:37;;;;;;;21.75;19.50;;;6.90;99.90;;;;;;5073264;28;20171;-71
2022/03/31 00:50:03;;;;;;;20.40;18.30;;;7.00;99.90;;;;;;5073225;28;20525;-70
2022/03/31 00:52:28;;;;;;;20.77;18.58;;;6.90;99.90;;;;;;5078578;28;20193;-70
2022/03/31 00:54:54;;;;;;;20.40;18.23;;;6.90;99.90;;;;;;5085164;28;20179;-71
2022/03/31 00:57:20;;;;;;;19.38;17.30;;;6.80;99.90;;;;;;5092408;28;20198;-71
2022/03/31 00:59:45;;;;;;;19.92;17.63;;;6.80;99.90;;;;;;5075067;28;20179;-71
2022/03/31 01:02:12;;;;;;;20.10;18.02;;;6.90;99.90;;;;;;5066628;28;20175;-72
2022/03/31 01:04:40;;;;;;;20.38;18.17;;;6.80;99.90;;;;;;5072842;28;20649;-72
2022/03/31 01:07:05;;;;;;;21.63;18.73;;;6.80;99.90;;;;;;5066707;28;20190;-72
2022/03/31 01:09:32;;;;;;;21.17;18.87;;;6.70;99.90;;;;;;5064614;28;20800;-71
2022/03/31 01:12:00;;;;;;;20.63;18.38;;;6.70;99.90;;;;;;5072448;28;20179;-72
2022/03/31 01:14:26;;;;;;;20.27;18.10;;;6.70;99.90;;;;;;5070427;28;20250;-72
2022/03/31 01:16:51;;;;;;;21.70;19.40;;;6.70;99.90;;;;;;5067370;28;20634;-70
2022/03/31 01:19:17;;;;;;;22.10;19.80;;;6.70;99.90;;;;;;5072549;28;20182;-71
2022/03/31 01:21:46;;;;;;;19.73;17.63;;;6.60;99.90;;;;;;5072384;28;20194;-71
2022/03/31 01:24:15;;;;;;;21.77;19.33;;;6.60;99.90;;;;;;5052582;28;20651;-72
2022/03/31 01:26:42;;;;;;;21.47;18.67;;;6.60;99.90;;;;;;5052126;28;20291;-71
2022/03/31 01:29:10;;;;;;;21.97;19.27;;;6.60;99.90;;;;;;5050989;28;20557;-71
2022/03/31 01:31:38;;;;;;;23.80;21.20;;;6.60;99.90;;;;;;5060636;28;20183;-74
2022/03/31 01:34:07;;;;;;;22.03;18.93;;;6.60;99.90;;;;;;5072165;28;20250;-70
2022/03/31 01:36:37;;;;;;;21.83;19.60;;;6.50;99.90;;;;;;5072093;28;20283;-71
2022/03/31 01:39:03;;;;;;;24.50;20.20;;;6.50;99.90;;;;;;5067298;28;20172;-71
2022/03/31 01:41:29;;;;;;;22.07;19.23;;;6.50;99.90;;;;;;5071389;28;20673;-71
2022/03/31 01:43:55;;;;;;;21.33;18.17;;;6.50;99.90;;;;;;5071956;28;20164;-72
2022/03/31 01:46:21;;;;;;;20.93;18.17;;;6.50;99.90;;;;;;5067326;28;20208;-72
2022/03/31 01:48:46;;;;;;;20.77;18.00;;;6.50;99.90;;;;;;5052257;28;20186;-70
2022/03/31 01:51:12;;;;;;;22.13;18.37;;;6.50;99.90;;;;;;5052632;28;20628;-70
2022/03/31 01:53:39;;;;;;;22.00;17.90;;;6.50;99.90;;;;;;5075508;28;20201;-71
2022/03/31 01:56:06;;;;;;;22.23;19.37;;;6.50;99.90;;;;;;5062051;28;20213;-70
2022/03/31 01:58:32;;;;;;;20.63;17.67;;;6.40;99.90;;;;;;5063283;28;20168;-70
2022/03/31 02:00:58;;;;;;;20.00;17.83;;;6.40;99.90;;;;;;5070301;28;20186;-70
2022/03/31 02:03:24;;;;;;;22.03;17.93;;;6.50;99.90;;;;;;5067227;28;20184;-72
2022/03/31 02:05:53;;;;;;;21.83;18.08;;;6.50;99.90;;;;;;5051342;28;20669;-70
2022/03/31 02:08:19;;;;;;;18.70;16.65;;;6.50;99.90;;;;;;5051920;28;20246;-70
2022/03/31 02:10:45;;;;;;;19.70;17.60;;;6.60;99.90;;;;;;5051953;28;20699;-70
2022/03/31 02:13:11;;;;;;;18.90;16.70;;;6.60;99.90;;;;;;5053106;28;20191;-72
2022/03/31 02:15:37;;;;;;;18.33;16.47;;;6.60;99.90;;;;;;5051366;28;20237;-72
2022/03/31 02:18:03;;;;;;;19.60;17.20;;;6.60;99.90;;;;;;5051649;28;20199;-72
2022/03/31 02:20:30;;;;;;;20.17;17.17;;;6.60;99.90;;;;;;5052232;28;20179;-72
2022/03/31 02:23:00;;;;;;;18.10;15.20;;;6.60;99.90;;;;;;5071398;28;20182;-72
2022/03/31 02:25:26;;;;;;;18.77;16.77;;;6.60;99.90;;;;;;5071167;28;20281;-72
2022/03/31 02:27:53;;;;;;;18.37;16.37;;;6.60;99.90;;;;;;5063218;28;20211;-72
2022/03/31 02:30:20;;;;;;;17.80;15.40;;;6.60;99.90;;;;;;5066660;28;20194;-72
2022/03/31 02:32:45;;;;;;;19.03;16.90;;;6.60;99.90;;;;;;5071681;28;20233;-72
2022/03/31 02:35:11;;;;;;;18.10;15.17;;;6.60;99.90;;;;;;5071180;28;20191;-72
2022/03/31 02:37:37;;;;;;;17.80;15.47;;;6.60;99.90;;;;;;5052656;28;20216;-72
2022/03/31 02:40:05;;;;;;;18.33;16.43;;;6.50;99.90;;;;;;5064259;28;20270;-72
2022/03/31 02:42:31;;;;;;;17.47;15.43;;;6.60;99.90;;;;;;5071084;28;20622;-72
2022/03/31 02:44:57;;;;;;;15.43;13.73;;;6.60;99.90;;;;;;5066985;28;20215;-72
2022/03/31 02:47:23;;;;;;;15.10;13.43;;;6.70;99.90;;;;;;5067510;28;20183;-72
2022/03/31 02:49:48;;;;;;;14.47;12.97;;;6.70;99.90;;;;;;5070954;28;20190;-73
2022/03/31 02:52:14;;;;;;;13.57;12.10;;;6.60;99.90;;;;;;5071320;28;20308;-72
2022/03/31 02:57:24;;;;;;;14.20;12.80;;;6.60;99.90;;;;;;5051221;28;20218;-72
2022/03/31 02:59:49;;;;;;;15.37;12.83;;;6.60;99.90;;;;;;5066430;28;20183;-72
2022/03/31 03:02:15;;;;;;;12.93;11.23;;;6.60;99.90;;;;;;5069041;28;20179;-72
2022/03/31 03:04:41;;;;;;;12.02;10.63;;;6.60;99.90;;;;;;5074636;28;20224;-72
2022/03/31 03:07:06;;;;;;;12.40;11.20;;;6.50;99.90;;;;;;5069014;28;20534;-71
2022/03/31 03:09:32;;;;;;;12.50;10.63;;;6.60;99.90;;;;;;5070354;28;20179;-71
2022/03/31 03:11:57;;;;;;;11.97;10.67;;;6.60;99.90;;;;;;5070470;28;20235;-70
2022/03/31 03:14:23;;;;;;;10.60;9.60;;;6.60;99.90;;;;;;5077890;28;20191;-73
2022/03/31 03:16:49;;;;;;;11.52;10.30;;;6.70;99.90;;;;;;5074101;28;20764;-71
2022/03/31 03:19:14;;;;;;;11.63;10.45;;;6.60;99.90;;;;;;5079565;28;20175;-71
2022/03/31 03:21:40;;;;;;;12.23;11.07;;;6.60;99.90;;;;;;5069205;28;20178;-71
2022/03/31 03:24:07;;;;;;;11.77;10.57;;;6.60;99.90;;;;;;5074220;28;20183;-71
2022/03/31 03:26:32;;;;;;;11.48;10.32;;;6.70;99.90;;;;;;5078869;28;20214;-72
2022/03/31 03:28:58;;;;;;;11.50;10.30;;;6.70;99.90;;;;;;5073571;28;20279;-71
2022/03/31 03:31:24;;;;;;;11.48;10.38;;;6.70;99.90;;;;;;5071211;28;20188;-71
2022/03/31 03:33:49;;;;;;;12.13;10.93;;;6.70;99.90;;;;;;5075642;28;20539;-71
2022/03/31 03:36:18;;;;;;;12.40;11.20;;;6.70;99.90;;;;;;5075495;28;20210;-71
2022/03/31 03:38:45;;;;;;;11.50;10.32;;;6.70;99.90;;;;;;5069537;28;20258;-70
2022/03/31 03:41:12;;;;;;;11.30;10.15;;;6.60;99.90;;;;;;5073965;28;20229;-72
2022/03/31 03:43:42;;;;;;;11.63;10.50;;;6.70;99.90;;;;;;5073831;28;20665;-72
2022/03/31 03:46:08;;;;;;;12.53;10.83;;;6.70;99.90;;;;;;5073642;28;20191;-71
2022/03/31 03:48:34;;;;;;;13.52;11.02;;;6.70;99.90;;;;;;5071737;28;20187;-72
2022/03/31 03:51:00;;;;;;;11.52;10.43;;;6.70;99.90;;;;;;5069797;28;20267;-72
2022/03/31 03:53:26;;;;;;;11.15;9.90;;;6.70;99.90;;;;;;5067594;28;20175;-72
2022/03/31 03:55:52;;;;;;;12.07;10.88;;;6.70;99.90;;;;;;5072165;28;20207;-71
2022/03/31 03:58:18;;;;;;;12.40;11.20;;;6.70;99.90;;;;;;5070703;28;20285;-71
2022/03/31 04:00:44;;;;;;;11.32;10.20;;;6.70;99.90;;;;;;5067444;28;20171;-70
2022/03/31 04:03:11;;;;;;;11.55;10.27;;;6.60;99.90;;;;;;5068230;28;20179;-70
2022/03/31 04:05:37;;;;;;;12.55;11.27;;;6.70;99.90;;;;;;5072148;28;20756;-70
2022/03/31 04:08:03;;;;;;;12.60;10.77;;;6.70;99.90;;;;;;5074944;28;20175;-73
2022/03/31 04:10:28;;;;;;;12.13;10.88;;;6.60;99.90;;;;;;5072349;28;20186;-70
2022/03/31 04:12:54;;;;;;;12.05;10.68;;;6.60;99.90;;;;;;5073490;28;20183;-70
2022/03/31 04:15:20;;;;;;;14.57;12.52;;;6.60;99.90;;;;;;5069335;28;20684;-71
2022/03/31 04:17:46;;;;;;;12.00;10.80;;;6.50;99.90;;;;;;5075331;28;20214;-70
2022/03/31 04:20:13;;;;;;;12.77;11.48;;;6.50;99.90;;;;;;5075365;28;20221;-70
2022/03/31 04:22:39;;;;;;;12.45;11.20;;;6.60;99.90;;;;;;5073100;28;20172;-70
2022/03/31 04:25:07;;;;;;;12.60;11.32;;;6.60;99.90;;;;;;5071643;28;20260;-71
2022/03/31 04:27:34;;;;;;;12.45;11.25;;;6.60;99.90;;;;;;5073150;28;20183;-71
2022/03/31 04:30:00;;;;;;;12.85;11.60;;;6.70;99.90;;;;;;5070389;28;20233;-72
2022/03/31 04:32:26;;;;;;;12.88;11.57;;;6.70;99.90;;;;;;5070565;28;20666;-71
2022/03/31 04:34:51;;;;;;;11.40;10.20;;;6.70;99.90;;;;;;5072229;28;20600;-71
2022/03/31 04:37:17;;;;;;;13.50;11.40;;;6.70;99.90;;;;;;5082941;28;20218;-69
2022/03/31 04:39:42;;;;;;;12.95;11.60;;;6.80;99.90;;;;;;5074251;28;20273;-70
2022/03/31 04:42:09;;;;;;;11.55;10.38;;;6.80;99.90;;;;;;5074147;28;20179;-70
2022/03/31 04:44:37;;;;;;;11.45;10.10;;;6.80;99.90;;;;;;5069415;28;20649;-70
2022/03/31 04:47:04;;;;;;;12.25;11.05;;;6.70;99.90;;;;;;5066627;28;20686;-70
2022/03/31 04:49:30;;;;;;;11.32;10.18;;;6.70;99.90;;;;;;5070170;28;20218;-74
2022/03/31 04:51:56;;;;;;;11.48;10.38;;;6.70;99.90;;;;;;5071724;28;20588;-72
2022/03/31 04:54:21;;;;;;;13.13;11.73;;;6.80;99.90;;;;;;5067128;28;20262;-70
2022/03/31 04:56:47;;;;;;;12.25;11.05;;;6.80;99.90;;;;;;5069526;28;20256;-72
2022/03/31 04:59:13;;;;;;;12.10;10.90;;;6.70;99.90;;;;;;5071656;28;20236;-71
2022/03/31 05:01:38;;;;;;;11.23;10.13;;;6.70;99.90;;;;;;5086546;28;20186;-71
2022/03/31 05:04:04;;;;;;;13.03;11.73;;;6.80;99.90;;;;;;5066806;28;20188;-71
2022/03/31 05:06:30;;;;;;;12.82;11.40;;;6.90;99.90;;;;;;5063828;28;20195;-71
2022/03/31 05:08:56;;;;;;;12.57;11.27;;;6.70;99.90;;;;;;5072641;28;20848;-72
2022/03/31 05:11:21;;;;;;;13.63;11.17;;;6.70;99.90;;;;;;5072534;28;20184;-70
2022/03/31 05:13:47;;;;;;;12.50;11.07;;;6.60;99.90;;;;;;5077692;28;20290;-70
2022/03/31 05:16:12;;;;;;;12.52;11.23;;;6.70;99.90;;;;;;5072293;28;20260;-71
2022/03/31 05:18:38;;;;;;;11.73;10.53;;;6.70;99.90;;;;;;5061566;28;20188;-71
2022/03/31 05:21:04;;;;;;;15.23;11.07;;;6.70;99.90;;;;;;5074420;28;20597;-72
2022/03/31 05:23:30;;;;;;;12.73;11.13;;;6.60;99.90;;;;;;5072427;28;20588;-71
2022/03/31 05:25:55;;;;;;;12.37;11.17;;;6.60;99.90;;;;;;5059814;28;20214;-72
2022/03/31 05:28:21;;;;;;;13.60;12.23;;;6.60;99.90;;;;;;5074933;28;20182;-73
2022/03/31 05:30:47;;;;;;;12.68;11.38;;;6.80;99.90;;;;;;5079425;28;20258;-74
2022/03/31 05:33:13;;;;;;;12.67;11.40;;;6.80;99.90;;;;;;5063323;28;20258;-72
2022/03/31 05:35:38;;;;;;;12.13;10.93;;;6.80;99.90;;;;;;5074425;28;20722;-72
2022/03/31 05:38:04;;;;;;;11.97;10.77;;;6.70;99.90;;;;;;5069086;28;20211;-72
2022/03/31 05:40:30;;;;;;;14.15;12.63;;;6.70;99.90;;;;;;5067864;28;20263;-72
2022/03/31 05:42:56;;;;;;;12.35;11.02;;;6.70;99.90;;;;;;5076809;28;20541;-72
2022/03/31 05:45:22;;;;;;;14.18;11.95;;;6.80;99.90;;;;;;5065689;28;20203;-75
2022/03/31 05:47:48;;;;;;;13.90;11.80;;;6.80;99.90;;;;;;5060548;28;20174;-72
2022/03/31 05:50:15;;;;;;;12.18;10.95;;;6.70;99.90;;;;;;5075158;28;20179;-73
2022/03/31 05:52:42;;;;;;;12.77;10.93;;;6.80;99.90;;;;;;5070555;28;20671;-76
2022/03/31 05:55:10;;;;;;;13.27;11.70;;;6.80;99.90;;;;;;5069136;28;20252;-74
2022/03/31 05:57:37;;;;;;;14.63;12.20;;;6.70;99.90;;;;;;5055940;28;20746;-73
2022/03/31 06:00:08;;;;;;;14.68;12.30;;;6.70;99.90;;;;;;5054658;28;20179;-74
2022/03/31 06:02:34;;;;;;;16.73;12.68;;;6.80;99.90;;;;;;5070469;28;20836;-73
2022/03/31 06:04:59;;;;;;;12.60;11.27;;;6.80;99.90;;;;;;5075995;28;20179;-72
2022/03/31 06:07:25;;;;;;;15.65;12.93;;;6.80;99.90;;;;;;5071281;28;20654;-73
2022/03/31 06:09:50;;;;;;;14.97;13.40;;;6.80;99.90;;;;;;5054590;28;20219;-73
2022/03/31 06:12:17;;;;;;;15.43;12.00;;;6.70;99.90;;;;;;5051908;28;20176;-73
2022/03/31 06:14:43;;;;;;;13.70;12.10;;;6.80;99.90;;;;;;5058055;28;20178;-72
2022/03/31 06:17:08;;;;;;;14.75;12.35;;;6.90;99.90;;;;;;5087216;28;20206;-73
2022/03/31 06:19:35;;;;;;;13.65;11.80;;;7.00;99.90;;;;;;5081317;28;20182;-74
2022/03/31 06:22:00;;;;;;;17.08;13.05;;;7.00;99.90;;;;;;5062213;28;22328;-73
2022/03/31 06:24:26;;;;;;;17.65;12.90;;;7.00;99.90;;;;;;5058472;28;20252;-71
2022/03/31 06:26:52;;;;;;;14.85;12.98;;;7.10;99.90;;;;;;5082943;28;20229;-72
2022/03/31 06:29:18;;;;;;;15.68;13.23;;;7.00;99.90;;;;;;5081980;28;20210;-72
2022/03/31 06:31:43;;;;;;;15.65;13.88;;;7.10;99.90;;;;;;5065546;28;20183;-72
2022/03/31 06:34:09;;;;;;;16.10;13.07;;;7.00;99.90;;;;;;5078371;28;20182;-72
2022/03/31 06:36:36;;;;;;;16.92;14.80;;;7.00;99.90;;;;;;5070038;28;20211;-73
2022/03/31 06:39:02;;;;;;;16.15;14.43;;;7.10;99.90;;;;;;5053251;28;20301;-75
2022/03/31 06:41:28;;;;;;;17.08;14.80;;;7.10;99.90;;;;;;5052631;28;20176;-74
2022/03/31 06:43:54;;;;;;;15.00;12.95;;;6.90;99.90;;;;;;5053131;28;20243;-74
2022/03/31 06:46:19;;;;;;;15.73;13.30;;;6.90;99.90;;;;;;5068595;28;20286;-74
2022/03/31 06:48:46;;;;;;;17.50;13.13;;;7.00;99.90;;;;;;5072231;28;20564;-77
2022/03/31 06:51:13;;;;;;;17.10;14.35;;;7.10;99.90;;;;;;5079581;28;20224;-73
2022/03/31 06:53:39;;;;;;;15.35;13.55;;;7.00;99.90;;;;;;5079005;28;20179;-76
2022/03/31 06:56:06;;;;;;;16.98;13.90;;;7.00;99.90;;;;;;5054020;28;20210;-73
2022/03/31 06:58:32;;;;;;;16.20;13.38;;;7.00;99.90;;;;;;5073161;28;20209;-73
2022/03/31 07:00:58;;;;;;;16.25;13.65;;;7.00;99.90;;;;;;5068434;28;20658;-73
2022/03/31 07:03:24;;;;;;;17.58;14.70;;;7.00;99.90;;;;;;5064994;28;20237;-73
2022/03/31 07:05:50;;;;;;;15.20;13.60;;;7.10;99.90;;;;;;5054732;28;20253;-72
2022/03/31 07:08:15;;;;;;;14.35;12.68;;;7.30;99.90;;;;;;5055185;28;20164;-72
2022/03/31 07:10:41;;;;;;;16.15;14.25;;;7.40;99.90;;;;;;5070860;28;20775;-73
2022/03/31 07:13:07;;;;;;;15.52;13.93;;;7.40;99.90;;;;;;5064783;28;20275;-74
2022/03/31 07:15:33;;;;;;;16.55;12.70;;;7.50;99.90;;;;;;5072036;28;20196;-73
2022/03/31 07:18:03;;;;;;;13.00;11.70;;;7.70;99.90;;;;;;5071400;28;20680;-73
2022/03/31 07:20:33;;;;;;;14.75;13.15;;;8.00;99.90;;;;;;5067457;28;20183;-73
2022/03/31 07:22:59;;;;;;;14.23;12.13;;;8.00;99.90;;;;;;5085441;28;20183;-73
2022/03/31 07:25:25;;;;;;;18.95;12.88;;;8.10;99.90;;;;;;5070315;28;20203;-73
2022/03/31 07:27:50;;;;;;;15.07;12.20;;;8.30;99.90;;;;;;5068994;28;20500;-74
2022/03/31 07:30:18;;;;;;;17.42;13.85;;;8.30;99.90;;;;;;5054832;28;20316;-74
2022/03/31 07:32:58;;;;;;;15.93;13.70;;;8.20;99.90;;;;;;5056199;28;20632;-73
2022/03/31 07:35:26;;;;;;;16.60;13.15;;;8.00;99.90;;;;;;5072903;28;20248;-72
2022/03/31 07:37:53;;;;;;;16.75;12.95;;;7.90;99.90;;;;;;5064233;28;20199;-72
2022/03/31 07:40:20;;;;;;;15.82;13.00;;;8.00;99.90;;;;;;5059878;28;20179;-73
2022/03/31 07:42:46;;;;;;;15.93;12.55;;;8.10;99.90;;;;;;5058758;28;20532;-71
2022/03/31 07:45:12;;;;;;;13.00;11.70;;;8.30;99.90;;;;;;5072795;28;20203;-73
2022/03/31 07:47:42;;;;;;;13.65;11.10;;;8.40;99.90;;;;;;5074348;28;20175;-72
2022/03/31 07:50:10;;;;;;;13.40;11.82;;;8.50;99.90;;;;;;5073745;28;20167;-73
2022/03/31 07:52:37;;;;;;;15.18;12.23;;;8.60;99.90;;;;;;5066943;28;20240;-72
2022/03/31 07:55:04;;;;;;;17.38;12.00;;;8.60;99.90;;;;;;5062253;28;20199;-74
2022/03/31 07:57:30;;;;;;;12.73;11.32;;;8.40;99.90;;;;;;5066532;28;20215;-74
2022/03/31 07:59:56;;;;;;;12.98;11.55;;;8.20;99.90;;;;;;5075020;28;20174;-74
2022/03/31 08:02:24;;;;;;;14.52;12.27;;;8.10;99.90;;;;;;5085098;28;20167;-74
2022/03/31 08:04:50;;;;;;;12.43;11.07;;;8.00;99.90;;;;;;5083598;28;20183;-74
2022/03/31 08:07:16;;;;;;;14.25;12.48;;;8.00;99.90;;;;;;5067677;28;20513;-77
2022/03/31 08:09:42;;;;;;;12.85;11.38;;;8.00;99.90;;;;;;5066501;28;20285;-76
2022/03/31 08:12:08;;;;;;;14.32;12.15;;;8.10;99.90;;;;;;5074860;28;20266;-74
2022/03/31 08:14:34;;;;;;;13.50;11.75;;;8.20;99.90;;;;;;5070766;28;20321;-74
2022/03/31 08:16:59;;;;;;;14.65;11.70;;;8.30;99.90;;;;;;5060608;28;20292;-74
2022/03/31 08:19:27;;;;;;;14.30;12.57;;;8.40;99.90;;;;;;5080484;28;20187;-73
2022/03/31 08:21:53;;;;;;;12.48;10.73;;;8.50;99.90;;;;;;5076560;28;20253;-78
2022/03/31 08:24:18;;;;;;;14.85;11.45;;;8.50;99.90;;;;;;5069254;28;20301;-79
2022/03/31 08:26:46;;;;;;;16.55;12.40;;;8.70;99.90;;;;;;5078108;28;20287;-75
2022/03/31 08:29:11;;;;;;;14.15;11.45;;;8.80;99.90;;;;;;5071229;28;20213;-78
2022/03/31 08:31:38;;;;;;;15.68;12.63;;;9.00;99.90;;;;;;5071706;28;20206;-77
2022/03/31 08:34:05;;;;;;;11.73;10.52;;;9.20;99.90;;;;;;5063424;28;20349;-74
2022/03/31 08:36:31;;;;;;;13.80;10.80;;;9.20;99.90;;;;;;5060598;28;20290;-80
2022/03/31 08:38:58;;;;;;;16.60;11.55;;;9.30;99.90;;;;;;5064814;28;20359;-75
2022/03/31 08:41:25;;;;;;;12.43;10.98;;;9.20;99.90;;;;;;5064100;28;20245;-77
2022/03/31 08:43:52;;;;;;;13.85;11.00;;;9.00;99.90;;;;;;5068312;28;20195;-75
2022/03/31 08:46:18;;;;;;;14.15;11.13;;;9.00;99.90;;;;;;5070583;28;20203;-76
2022/03/31 08:48:44;;;;;;;13.82;10.80;;;9.10;99.90;;;;;;5062923;28;20256;-72
2022/03/31 08:51:10;;;;;;;17.42;11.70;;;9.20;99.90;;;;;;5066240;28;20210;-72
2022/03/31 08:53:36;;;;;;;14.93;11.10;;;9.00;99.90;;;;;;5068152;28;20188;-74
2022/03/31 08:56:02;;;;;;;12.50;9.88;;;9.30;99.90;;;;;;5069457;28;20195;-74
2022/03/31 08:58:28;;;;;;;13.63;11.15;;;9.70;99.90;;;;;;5076605;28;20206;-73
2022/03/31 09:00:54;;;;;;;12.07;10.85;;;9.90;99.90;;;;;;5068507;28;20536;-72
2022/03/31 09:03:20;;;;;;;14.50;10.88;;;9.90;99.90;;;;;;5074068;28;20634;-72
2022/03/31 09:05:51;;;;;;;16.38;10.95;;;10.10;99.90;;;;;;5074789;28;20202;-73
2022/03/31 09:08:17;;;;;;;13.05;10.30;;;10.00;99.90;;;;;;5076795;28;20206;-72
2022/03/31 09:10:48;;;;;;;12.07;10.38;;;10.10;99.90;;;;;;5074601;28;20179;-74
2022/03/31 09:13:40;;;;;;;12.23;10.50;;;10.00;99.90;;;;;;5068744;28;20175;-74
2022/03/31 09:16:10;;;;;;;12.68;11.00;;;9.80;99.90;;;;;;5067074;28;20626;-73
2022/03/31 09:18:38;;;;;;;12.38;10.13;;;10.10;99.90;;;;;;5079369;28;20576;-74
2022/03/31 09:21:06;;;;;;;13.40;9.85;;;10.30;99.90;;;;;;5066478;28;20597;-73
2022/03/31 09:23:44;;;;;;;12.23;8.70;;;10.40;99.90;;;;;;5080203;28;20174;-72
2022/03/31 09:26:12;;;;;;;11.20;9.98;;;10.70;99.90;;;;;;5087484;28;20270;-74
2022/03/31 09:28:40;;;;;;;10.63;9.32;;;10.80;99.90;;;;;;5076720;28;20180;-73
2022/03/31 09:31:10;;;;;;;11.80;8.90;;;10.80;99.90;;;;;;5070165;28;20576;-73
2022/03/31 09:33:53;;;;;;;10.55;8.73;;;10.90;99.90;;;;;;5071875;28;20167;-73
2022/03/31 09:36:24;;;;;;;10.23;9.15;;;11.30;99.90;;;;;;5069907;28;20199;-74
2022/03/31 09:38:54;;;;;;;10.15;8.75;;;11.60;99.90;;;;;;5069579;28;20171;-74
2022/03/31 09:41:29;;;;;;;9.48;8.48;;;11.40;99.90;;;;;;5066586;28;20170;-73
2022/03/31 09:43:57;;;;;;;9.80;7.70;;;11.50;99.90;;;;;;5080456;28;20209;-76
2022/03/31 09:46:22;;;;;;;10.43;8.80;;;12.00;99.90;;;;;;5071561;28;20595;-75
2022/03/31 09:48:49;;;;;;;9.65;8.65;;;12.30;99.90;;;;;;5061799;28;20188;-75
2022/03/31 09:51:16;;;;;;;9.15;7.95;;;12.30;99.90;;;;;;5080468;28;20178;-74
2022/03/31 09:53:41;;;;;;;8.77;7.35;;;12.50;99.90;;;;;;5077075;28;20182;-75
2022/03/31 09:56:07;;;;;;;9.13;8.20;;;12.70;99.90;;;;;;5052708;28;20191;-77
2022/03/31 09:58:39;;;;;;;7.65;7.03;;;12.90;99.90;;;;;;5061763;28;20293;-77
2022/03/31 10:01:05;;;;;;;8.25;7.28;;;12.60;99.90;;;;;;5068158;28;20518;-77
2022/03/31 10:03:31;;;;;;;8.70;7.72;;;12.50;99.90;;;;;;5052773;28;20274;-77
2022/03/31 10:05:58;;;;;;;7.95;7.15;;;12.60;99.90;;;;;;5051783;28;20255;-77
2022/03/31 10:08:24;;;;;;;8.50;7.50;;;12.80;99.90;;;;;;5056965;28;20214;-77
2022/03/31 10:10:51;;;;;;;8.15;7.45;;;13.00;99.90;;;;;;5065434;28;20183;-77
2022/03/31 10:13:25;;;;;;;7.43;6.75;;;12.60;99.90;;;;;;5070356;28;20167;-76
2022/03/31 10:15:59;;;;;;;8.02;6.50;;;12.60;99.90;;;;;;5072756;28;20838;-77
2022/03/31 10:18:25;;;;;;;8.18;7.38;;;12.40;99.90;;;;;;5071076;28;20214;-76
2022/03/31 10:21:00;;;;;;;8.05;7.22;;;12.10;99.90;;;;;;5066643;28;20190;-73
2022/03/31 10:26:40;;;;;;;7.80;6.97;;;11.80;99.90;;;;;;5077052;28;20262;-76
2022/03/31 10:29:12;;;;;;;7.55;6.75;;;12.00;99.90;;;;;;5067401;28;20251;-73
2022/03/31 10:31:45;;;;;;;6.78;6.18;;;11.80;99.90;;;;;;5071349;28;20171;-74
2022/03/31 10:34:14;;;;;;;8.25;7.40;;;11.80;99.90;;;;;;5071666;28;20202;-73
2022/03/31 10:36:47;;;;;;;7.50;6.80;;;11.60;99.90;;;;;;5066267;28;20206;-77
2022/03/31 10:39:21;;;;;;;7.53;6.82;;;11.50;99.90;;;;;;5076564;28;20654;-76
2022/03/31 10:41:48;;;;;;;7.90;7.15;;;11.50;99.90;;;;;;5070292;28;20224;-76
2022/03/31 10:44:14;;;;;;;8.43;6.53;;;11.50;99.90;;;;;;5066153;28;20186;-74
2022/03/31 10:46:41;;;;;;;8.32;7.53;;;11.40;99.90;;;;;;5069429;28;20203;-75
2022/03/31 10:49:17;;;;;;;7.70;6.90;;;11.30;99.90;;;;;;5066796;28;20183;-75
2022/03/31 10:51:43;;;;;;;8.15;6.70;;;11.40;99.90;;;;;;5070226;28;20182;-75
2022/03/31 10:54:14;;;;;;;8.65;6.97;;;11.50;99.90;;;;;;5070630;28;20183;-75
2022/03/31 10:56:40;;;;;;;8.27;7.45;;;11.30;99.90;;;;;;5066932;28;20677;-74
2022/03/31 10:59:06;;;;;;;8.68;7.60;;;11.40;99.90;;;;;;5067647;28;20301;-77
2022/03/31 11:01:33;;;;;;;8.65;7.18;;;11.40;99.90;;;;;;5067606;28;20179;-77
2022/03/31 11:04:05;;;;;;;9.98;8.48;;;11.60;99.90;;;;;;5068334;28;20199;-75
2022/03/31 11:06:31;;;;;;;8.43;7.53;;;11.70;99.90;;;;;;5051273;28;20278;-75
2022/03/31 11:08:57;;;;;;;10.15;7.88;;;11.50;99.90;;;;;;5065162;28;20211;-75
2022/03/31 11:11:27;;;;;;;9.25;7.43;;;11.60;99.90;;;;;;5072285;28;20262;-76
2022/03/31 11:13:55;;;;;;;9.10;7.95;;;11.90;99.90;;;;;;5074530;28;20210;-75
2022/03/31 11:16:41;;;;;;;13.70;7.43;;;11.90;99.90;;;;;;5054330;28;20203;-75
2022/03/31 11:19:07;;;;;;;9.40;7.50;;;11.80;99.90;;;;;;5051120;28;20726;-75
2022/03/31 11:21:38;;;;;;;8.98;7.63;;;11.90;99.90;;;;;;5051644;28;20183;-75
2022/03/31 11:24:05;;;;;;;8.73;7.93;;;11.60;99.90;;;;;;5059096;28;20225;-77
2022/03/31 11:26:35;;;;;;;11.32;9.32;;;11.40;99.90;;;;;;5072269;28;20234;-74
2022/03/31 11:29:02;;;;;;;9.85;8.85;;;11.10;99.90;;;;;;5061563;28;20234;-75
2022/03/31 11:31:28;;;;;;;9.52;8.45;;;11.10;99.90;;;;;;5067895;28;20168;-75
2022/03/31 11:33:55;;;;;;;10.45;8.98;;;11.10;99.90;;;;;;5058549;28;20201;-74
2022/03/31 11:36:21;;;;;;;10.43;9.32;;;11.10;99.90;;;;;;5059557;28;20200;-75
2022/03/31 11:38:58;;;;;;;10.13;9.10;;;11.30;99.90;;;;;;5058352;28;20226;-75
2022/03/31 11:41:24;;;;;;;10.75;9.40;;;11.30;99.90;;;;;;5065330;28;20185;-75
2022/03/31 11:43:56;;;;;;;9.93;8.93;;;11.20;99.90;;;;;;5073580;28;20277;-75
2022/03/31 11:46:21;;;;;;;10.70;9.18;;;11.20;99.90;;;;;;5068494;28;20192;-74
2022/03/31 11:48:49;;;;;;;11.70;10.07;;;11.20;99.90;;;;;;5074212;28;20179;-75
2022/03/31 11:51:15;;;;;;;10.50;8.55;;;11.30;99.90;;;;;;5065030;28;20222;-75
2022/03/31 11:53:47;;;;;;;9.40;8.50;;;11.40;99.90;;;;;;5066190;28;20258;-74
2022/03/31 11:56:21;;;;;;;9.32;8.40;;;11.50;99.90;;;;;;5072210;28;20195;-73
2022/03/31 11:58:57;;;;;;;9.57;8.27;;;11.60;99.90;;;;;;5065856;28;20252;-74
2022/03/31 12:01:34;;;;;;;11.05;7.93;;;11.60;99.90;;;;;;5072108;28;20159;-75
2022/03/31 12:04:00;;;;;;;9.07;8.25;;;11.40;99.90;;;;;;5054070;28;20160;-75
2022/03/31 12:06:30;;;;;;;9.35;8.40;;;11.30;99.90;;;;;;5061524;28;20202;-75
2022/03/31 12:08:57;;;;;;;9.30;8.00;;;11.20;99.90;;;;;;5070799;28;20180;-74
2022/03/31 12:11:24;;;;;;;10.05;8.70;;;11.30;99.90;;;;;;5070924;28;20180;-74
2022/03/31 12:13:52;;;;;;;10.38;8.95;;;11.40;99.90;;;;;;5054130;28;20164;-75
2022/03/31 12:16:20;;;;;;;9.77;8.75;;;11.50;99.90;;;;;;5053765;28;20199;-75
2022/03/31 12:18:55;;;;;;;10.68;7.65;;;11.50;99.90;;;;;;5054047;28;20196;-74
2022/03/31 12:21:23;;;;;;;9.20;8.30;;;11.70;99.90;;;;;;5055925;28;20179;-75
2022/03/31 12:23:49;;;;;;;11.10;8.27;;;11.90;99.90;;;;;;5073294;28;20168;-74
2022/03/31 12:26:19;;;;;;;9.65;8.63;;;12.00;99.90;;;;;;5073155;28;20207;-74
2022/03/31 12:28:46;;;;;;;8.95;8.10;;;11.90;99.90;;;;;;5073373;28;20832;-74
2022/03/31 12:31:29;;;;;;;8.57;7.75;;;11.90;99.90;;;;;;5057201;28;20192;-75
2022/03/31 12:33:56;;;;;;;9.25;8.35;;;11.90;99.90;;;;;;5053767;28;20168;-73
2022/03/31 12:36:32;;;;;;;9.75;8.57;;;12.00;99.90;;;;;;5066206;28;20199;-74
2022/03/31 12:38:58;;;;;;;8.75;7.80;;;12.00;99.90;;;;;;5068811;28;20193;-74
2022/03/31 12:41:36;;;;;;;9.38;8.43;;;11.90;99.90;;;;;;5069412;28;20266;-74
2022/03/31 12:44:02;;;;;;;10.50;9.45;;;11.90;99.90;;;;;;5063405;28;20189;-75